sensor_id;sensor_type;location;lat;lon;timestamp;temperature;humidity
4697;DHT22;2362;50.780;0.292;2023-10-19T00:00:40;15.30;99.90
4697;DHT22;2362;50.780;0.292;2023-10-19T00:03:19;15.30;99.90
4697;DHT22;2362;50.780;0.292;2023-10-19T00:05:46;15.30;99.90
4697;DHT22;2362;50.780;0.292;2023-10-19T00:08:13;15.30;99.90
4697;DHT22;2362;50.780;0.292;2023-10-19T00:10:39;15.40;99.90
4697;DHT22;2362;50.780;0.292;2023-10-19T00:13:08;15.40;99.90
4697;DHT22;2362;50.780;0.292;2023-10-19T00:15:43;15.40;99.90
4697;DHT22;2362;50.780;0.292;2023-10-19T00:18:18;15.40;99.90
4697;DHT22;2362;50.780;0.292;2023-10-19T00:20:49;15.40;99.90
4697;DHT22;2362;50.780;0.292;2023-10-19T00:23:23;15.40;99.90
4697;DHT22;2362;50.780;0.292;2023-10-19T00:25:58;15.30;99.90
4697;DHT22;2362;50.780;0.292;2023-10-19T00:28:25;15.40;99.90
4697;DHT22;2362;50.780;0.292;2023-10-19T00:30:52;15.40;99.90
4697;DHT22;2362;50.780;0.292;2023-10-19T00:33:19;15.40;99.90
4697;DHT22;2362;50.780;0.292;2023-10-19T00:35:52;15.40;99.90
4697;DHT22;2362;50.780;0.292;2023-10-19T00:38:26;15.40;99.90
4697;DHT22;2362;50.780;0.292;2023-10-19T00:40:53;15.40;99.90
4697;DHT22;2362;50.780;0.292;2023-10-19T00:43:29;15.40;99.90
4697;DHT22;2362;50.780;0.292;2023-10-19T00:45:59;15.40;99.90
4697;DHT22;2362;50.780;0.292;2023-10-19T00:48:28;15.40;99.90
4697;DHT22;2362;50.780;0.292;2023-10-19T00:50:54;15.40;99.90
4697;DHT22;2362;50.780;0.292;2023-10-19T00:53:37;15.50;99.90
4697;DHT22;2362;50.780;0.292;2023-10-19T00:56:04;15.50;99.90
4697;DHT22;2362;50.780;0.292;2023-10-19T00:58:32;15.50;99.90
4697;DHT22;2362;50.780;0.292;2023-10-19T01:01:03;15.50;99.90
4697;DHT22;2362;50.780;0.292;2023-10-19T01:03:32;15.50;99.90
4697;DHT22;2362;50.780;0.292;2023-10-19T01:06:03;15.40;99.90
4697;DHT22;2362;50.780;0.292;2023-10-19T01:08:39;15.50;99.90
4697;DHT22;2362;50.780;0.292;2023-10-19T01:11:11;15.50;99.90
4697;DHT22;2362;50.780;0.292;2023-10-19T01:13:38;15.50;99.90
4697;DHT22;2362;50.780;0.292;2023-10-19T01:16:14;15.50;99.90
4697;DHT22;2362;50.780;0.292;2023-10-19T01:18:52;15.50;99.90
4697;DHT22;2362;50.780;0.292;2023-10-19T01:21:22;15.50;99.90
4697;DHT22;2362;50.780;0.292;2023-10-19T01:23:51;15.50;99.90
4697;DHT22;2362;50.780;0.292;2023-10-19T01:26:18;15.50;99.90
4697;DHT22;2362;50.780;0.292;2023-10-19T01:28:52;15.60;99.90
4697;DHT22;2362;50.780;0.292;2023-10-19T01:31:27;15.60;99.90
4697;DHT22;2362;50.780;0.292;2023-10-19T01:33:59;15.60;99.90
4697;DHT22;2362;50.780;0.292;2023-10-19T01:36:31;15.60;99.90
4697;DHT22;2362;50.780;0.292;2023-10-19T01:39:03;15.70;99.90
4697;DHT22;2362;50.780;0.292;2023-10-19T01:41:35;15.70;99.90
4697;DHT22;2362;50.780;0.292;2023-10-19T01:44:00;15.70;99.90
4697;DHT22;2362;50.780;0.292;2023-10-19T01:46:34;15.70;99.90
4697;DHT22;2362;50.780;0.292;2023-10-19T01:49:01;15.70;99.90
4697;DHT22;2362;50.780;0.292;2023-10-19T01:51:34;15.70;99.90
4697;DHT22;2362;50.780;0.292;2023-10-19T01:54:07;15.70;99.90
4697;DHT22;2362;50.780;0.292;2023-10-19T01:56:33;15.60;99.90
4697;DHT22;2362;50.780;0.292;2023-10-19T01:59:01;15.60;99.90
4697;DHT22;2362;50.780;0.292;2023-10-19T02:01:27;15.50;99.90
4697;DHT22;2362;50.780;0.292;2023-10-19T02:03:58;15.50;99.90
4697;DHT22;2362;50.780;0.292;2023-10-19T02:06:25;15.50;99.90
4697;DHT22;2362;50.780;0.292;2023-10-19T02:09:00;15.60;99.90
4697;DHT22;2362;50.780;0.292;2023-10-19T02:11:27;15.60;99.90
4697;DHT22;2362;50.780;0.292;2023-10-19T02:13:55;15.60;99.90
4697;DHT22;2362;50.780;0.292;2023-10-19T02:16:25;15.60;99.90
4697;DHT22;2362;50.780;0.292;2023-10-19T02:18:51;15.60;99.90
4697;DHT22;2362;50.780;0.292;2023-10-19T02:21:18;15.70;99.90
4697;DHT22;2362;50.780;0.292;2023-10-19T02:23:59;15.70;99.90
4697;DHT22;2362;50.780;0.292;2023-10-19T02:26:25;15.70;99.90
4697;DHT22;2362;50.780;0.292;2023-10-19T02:28:54;15.80;99.90
4697;DHT22;2362;50.780;0.292;2023-10-19T02:31:22;15.70;99.90
4697;DHT22;2362;50.780;0.292;2023-10-19T02:33:53;15.80;99.90
4697;DHT22;2362;50.780;0.292;2023-10-19T02:36:26;15.70;99.90
4697;DHT22;2362;50.780;0.292;2023-10-19T02:39:02;15.80;99.90
4697;DHT22;2362;50.780;0.292;2023-10-19T02:44:07;15.70;99.90
4697;DHT22;2362;50.780;0.292;2023-10-19T02:46:35;15.60;99.90
4697;DHT22;2362;50.780;0.292;2023-10-19T02:49:05;15.60;99.90
4697;DHT22;2362;50.780;0.292;2023-10-19T02:51:37;15.60;99.90
4697;DHT22;2362;50.780;0.292;2023-10-19T02:54:04;15.70;99.90
4697;DHT22;2362;50.780;0.292;2023-10-19T02:56:31;15.70;99.90
4697;DHT22;2362;50.780;0.292;2023-10-19T02:58:56;15.70;99.90
4697;DHT22;2362;50.780;0.292;2023-10-19T03:01:31;15.70;99.90
4697;DHT22;2362;50.780;0.292;2023-10-19T03:04:00;15.60;99.90
4697;DHT22;2362;50.780;0.292;2023-10-19T03:06:27;15.60;99.90
4697;DHT22;2362;50.780;0.292;2023-10-19T03:09:00;15.60;99.90
4697;DHT22;2362;50.780;0.292;2023-10-19T03:11:51;15.70;99.90
4697;DHT22;2362;50.780;0.292;2023-10-19T03:14:22;15.70;99.90
4697;DHT22;2362;50.780;0.292;2023-10-19T03:16:51;15.70;99.90
4697;DHT22;2362;50.780;0.292;2023-10-19T03:19:17;15.80;99.90
4697;DHT22;2362;50.780;0.292;2023-10-19T03:21:42;15.80;99.90
4697;DHT22;2362;50.780;0.292;2023-10-19T03:24:09;15.80;99.90
4697;DHT22;2362;50.780;0.292;2023-10-19T03:26:39;15.80;99.90
4697;DHT22;2362;50.780;0.292;2023-10-19T03:29:14;15.80;99.90
4697;DHT22;2362;50.780;0.292;2023-10-19T03:31:41;15.80;99.90
4697;DHT22;2362;50.780;0.292;2023-10-19T03:34:14;15.80;99.90
4697;DHT22;2362;50.780;0.292;2023-10-19T03:36:42;15.80;99.90
4697;DHT22;2362;50.780;0.292;2023-10-19T03:39:08;15.80;99.90
4697;DHT22;2362;50.780;0.292;2023-10-19T03:41:44;15.80;99.90
4697;DHT22;2362;50.780;0.292;2023-10-19T03:44:13;15.90;99.90
4697;DHT22;2362;50.780;0.292;2023-10-19T03:46:53;15.80;99.90
4697;DHT22;2362;50.780;0.292;2023-10-19T03:49:20;15.80;99.90
4697;DHT22;2362;50.780;0.292;2023-10-19T03:51:46;15.80;99.90
4697;DHT22;2362;50.780;0.292;2023-10-19T03:54:28;15.80;99.90
4697;DHT22;2362;50.780;0.292;2023-10-19T03:56:55;15.80;99.90
4697;DHT22;2362;50.780;0.292;2023-10-19T03:59:22;15.80;99.90
4697;DHT22;2362;50.780;0.292;2023-10-19T04:01:49;15.90;99.90
4697;DHT22;2362;50.780;0.292;2023-10-19T04:04:15;15.90;99.90
4697;DHT22;2362;50.780;0.292;2023-10-19T04:06:42;15.90;99.90
4697;DHT22;2362;50.780;0.292;2023-10-19T04:09:14;15.90;99.90
4697;DHT22;2362;50.780;0.292;2023-10-19T04:11:43;15.90;99.90
4697;DHT22;2362;50.780;0.292;2023-10-19T04:14:15;15.90;99.90
4697;DHT22;2362;50.780;0.292;2023-10-19T04:16:42;16.00;99.90
4697;DHT22;2362;50.780;0.292;2023-10-19T04:19:11;16.00;99.90
4697;DHT22;2362;50.780;0.292;2023-10-19T04:21:37;16.00;99.90
4697;DHT22;2362;50.780;0.292;2023-10-19T04:24:09;16.00;99.90
4697;DHT22;2362;50.780;0.292;2023-10-19T04:26:37;16.00;99.90
4697;DHT22;2362;50.780;0.292;2023-10-19T04:29:07;16.00;99.90
4697;DHT22;2362;50.780;0.292;2023-10-19T04:31:40;16.00;99.90
4697;DHT22;2362;50.780;0.292;2023-10-19T04:34:15;16.00;99.90
4697;DHT22;2362;50.780;0.292;2023-10-19T04:36:42;16.10;99.90
4697;DHT22;2362;50.780;0.292;2023-10-19T04:39:08;16.10;99.90
4697;DHT22;2362;50.780;0.292;2023-10-19T04:41:39;16.10;99.90
4697;DHT22;2362;50.780;0.292;2023-10-19T04:44:05;16.10;99.90
4697;DHT22;2362;50.780;0.292;2023-10-19T04:46:34;16.00;99.90
4697;DHT22;2362;50.780;0.292;2023-10-19T04:49:00;16.00;99.90
4697;DHT22;2362;50.780;0.292;2023-10-19T04:51:26;16.00;99.90
4697;DHT22;2362;50.780;0.292;2023-10-19T04:53:51;15.90;99.90
4697;DHT22;2362;50.780;0.292;2023-10-19T04:56:17;16.00;99.90
4697;DHT22;2362;50.780;0.292;2023-10-19T04:58:42;15.90;99.90
4697;DHT22;2362;50.780;0.292;2023-10-19T05:01:08;16.00;99.90
4697;DHT22;2362;50.780;0.292;2023-10-19T05:03:37;16.00;99.90
4697;DHT22;2362;50.780;0.292;2023-10-19T05:06:04;15.90;99.90
4697;DHT22;2362;50.780;0.292;2023-10-19T05:08:30;16.00;99.90
4697;DHT22;2362;50.780;0.292;2023-10-19T05:10:58;16.00;99.90
4697;DHT22;2362;50.780;0.292;2023-10-19T05:13:25;16.00;99.90
4697;DHT22;2362;50.780;0.292;2023-10-19T05:15:54;16.00;99.90
4697;DHT22;2362;50.780;0.292;2023-10-19T05:18:22;16.00;99.90
4697;DHT22;2362;50.780;0.292;2023-10-19T05:20:48;16.00;99.90
4697;DHT22;2362;50.780;0.292;2023-10-19T05:23:14;16.00;99.90
4697;DHT22;2362;50.780;0.292;2023-10-19T05:25:42;16.00;99.90
4697;DHT22;2362;50.780;0.292;2023-10-19T05:28:08;16.00;99.90
4697;DHT22;2362;50.780;0.292;2023-10-19T05:30:35;16.00;99.90
4697;DHT22;2362;50.780;0.292;2023-10-19T05:33:01;16.00;99.90
4697;DHT22;2362;50.780;0.292;2023-10-19T05:35:28;16.00;99.90
4697;DHT22;2362;50.780;0.292;2023-10-19T05:37:55;16.00;99.90
4697;DHT22;2362;50.780;0.292;2023-10-19T05:40:23;16.00;99.90
4697;DHT22;2362;50.780;0.292;2023-10-19T05:42:55;16.00;99.90
4697;DHT22;2362;50.780;0.292;2023-10-19T05:45:20;16.00;99.90
4697;DHT22;2362;50.780;0.292;2023-10-19T05:47:46;16.00;99.90
4697;DHT22;2362;50.780;0.292;2023-10-19T05:50:11;15.90;99.90
4697;DHT22;2362;50.780;0.292;2023-10-19T05:52:40;16.00;99.90
4697;DHT22;2362;50.780;0.292;2023-10-19T05:55:09;15.90;99.90
4697;DHT22;2362;50.780;0.292;2023-10-19T05:57:36;15.90;99.90
4697;DHT22;2362;50.780;0.292;2023-10-19T06:00:04;16.00;99.90
4697;DHT22;2362;50.780;0.292;2023-10-19T06:02:30;15.90;99.90
4697;DHT22;2362;50.780;0.292;2023-10-19T06:04:56;15.90;99.90
4697;DHT22;2362;50.780;0.292;2023-10-19T06:07:22;15.90;99.90
4697;DHT22;2362;50.780;0.292;2023-10-19T06:09:50;15.90;99.90
4697;DHT22;2362;50.780;0.292;2023-10-19T06:12:16;16.00;99.90
4697;DHT22;2362;50.780;0.292;2023-10-19T06:14:41;15.90;99.90
4697;DHT22;2362;50.780;0.292;2023-10-19T06:17:07;15.90;99.90
4697;DHT22;2362;50.780;0.292;2023-10-19T06:19:33;15.90;99.90
4697;DHT22;2362;50.780;0.292;2023-10-19T06:21:58;15.90;99.90
4697;DHT22;2362;50.780;0.292;2023-10-19T06:24:25;15.90;99.90
4697;DHT22;2362;50.780;0.292;2023-10-19T06:26:51;15.90;99.90
4697;DHT22;2362;50.780;0.292;2023-10-19T06:29:18;15.90;99.90
4697;DHT22;2362;50.780;0.292;2023-10-19T06:31:43;15.90;99.90
4697;DHT22;2362;50.780;0.292;2023-10-19T06:34:09;15.90;99.90
4697;DHT22;2362;50.780;0.292;2023-10-19T06:36:36;15.90;99.90
4697;DHT22;2362;50.780;0.292;2023-10-19T06:39:01;15.90;99.90
4697;DHT22;2362;50.780;0.292;2023-10-19T06:41:31;15.90;99.90
4697;DHT22;2362;50.780;0.292;2023-10-19T06:43:57;15.90;99.90
4697;DHT22;2362;50.780;0.292;2023-10-19T06:46:24;15.90;99.90
4697;DHT22;2362;50.780;0.292;2023-10-19T06:48:49;15.90;99.90
4697;DHT22;2362;50.780;0.292;2023-10-19T06:51:16;15.90;99.90
4697;DHT22;2362;50.780;0.292;2023-10-19T06:53:42;15.90;99.90
4697;DHT22;2362;50.780;0.292;2023-10-19T06:56:07;15.90;99.90
4697;DHT22;2362;50.780;0.292;2023-10-19T06:58:33;15.90;99.90
4697;DHT22;2362;50.780;0.292;2023-10-19T07:00:59;15.90;99.90
4697;DHT22;2362;50.780;0.292;2023-10-19T07:03:31;15.90;99.90
4697;DHT22;2362;50.780;0.292;2023-10-19T07:05:57;15.90;99.90
4697;DHT22;2362;50.780;0.292;2023-10-19T07:08:23;15.90;99.90
4697;DHT22;2362;50.780;0.292;2023-10-19T07:10:49;15.90;99.90
4697;DHT22;2362;50.780;0.292;2023-10-19T07:13:15;15.90;99.90
4697;DHT22;2362;50.780;0.292;2023-10-19T07:15:45;15.90;99.90
4697;DHT22;2362;50.780;0.292;2023-10-19T07:18:10;15.90;99.90
4697;DHT22;2362;50.780;0.292;2023-10-19T07:20:36;15.90;99.90
4697;DHT22;2362;50.780;0.292;2023-10-19T07:23:04;15.90;99.90
4697;DHT22;2362;50.780;0.292;2023-10-19T07:25:36;15.90;99.90
4697;DHT22;2362;50.780;0.292;2023-10-19T07:28:13;15.90;99.90
4697;DHT22;2362;50.780;0.292;2023-10-19T07:30:43;15.90;99.90
4697;DHT22;2362;50.780;0.292;2023-10-19T07:33:11;15.90;99.90
4697;DHT22;2362;50.780;0.292;2023-10-19T07:35:42;15.90;99.90
4697;DHT22;2362;50.780;0.292;2023-10-19T07:38:09;16.00;99.90
4697;DHT22;2362;50.780;0.292;2023-10-19T07:40:36;16.00;99.90
4697;DHT22;2362;50.780;0.292;2023-10-19T07:43:02;15.90;99.90
4697;DHT22;2362;50.780;0.292;2023-10-19T07:45:29;16.00;99.90
4697;DHT22;2362;50.780;0.292;2023-10-19T07:47:57;16.00;99.90
4697;DHT22;2362;50.780;0.292;2023-10-19T07:50:23;16.00;99.90
4697;DHT22;2362;50.780;0.292;2023-10-19T07:52:52;15.90;99.90
4697;DHT22;2362;50.780;0.292;2023-10-19T07:55:21;16.00;99.90
4697;DHT22;2362;50.780;0.292;2023-10-19T07:57:51;16.00;99.90
4697;DHT22;2362;50.780;0.292;2023-10-19T08:00:19;16.00;99.90
4697;DHT22;2362;50.780;0.292;2023-10-19T08:02:45;16.00;99.90
4697;DHT22;2362;50.780;0.292;2023-10-19T08:05:14;16.00;99.90
4697;DHT22;2362;50.780;0.292;2023-10-19T08:07:41;15.90;99.90
4697;DHT22;2362;50.780;0.292;2023-10-19T08:10:14;16.00;99.90
4697;DHT22;2362;50.780;0.292;2023-10-19T08:12:41;16.00;99.90
4697;DHT22;2362;50.780;0.292;2023-10-19T08:15:11;16.00;99.90
4697;DHT22;2362;50.780;0.292;2023-10-19T08:17:42;16.00;99.90
4697;DHT22;2362;50.780;0.292;2023-10-19T08:20:09;16.00;99.90
4697;DHT22;2362;50.780;0.292;2023-10-19T08:22:36;16.00;99.90
4697;DHT22;2362;50.780;0.292;2023-10-19T08:25:03;16.00;99.90
4697;DHT22;2362;50.780;0.292;2023-10-19T08:27:30;16.00;99.90
4697;DHT22;2362;50.780;0.292;2023-10-19T08:29:56;16.10;99.90
4697;DHT22;2362;50.780;0.292;2023-10-19T08:32:22;16.30;99.90
4697;DHT22;2362;50.780;0.292;2023-10-19T08:34:48;16.30;99.90
4697;DHT22;2362;50.780;0.292;2023-10-19T08:37:13;16.40;99.90
4697;DHT22;2362;50.780;0.292;2023-10-19T08:39:40;16.40;99.90
4697;DHT22;2362;50.780;0.292;2023-10-19T08:42:06;16.50;99.90
4697;DHT22;2362;50.780;0.292;2023-10-19T08:44:32;16.60;99.90
4697;DHT22;2362;50.780;0.292;2023-10-19T08:46:58;16.70;99.90
4697;DHT22;2362;50.780;0.292;2023-10-19T08:49:25;16.90;99.90
4697;DHT22;2362;50.780;0.292;2023-10-19T08:51:52;17.00;99.90
4697;DHT22;2362;50.780;0.292;2023-10-19T08:54:20;16.90;99.90
4697;DHT22;2362;50.780;0.292;2023-10-19T08:56:46;16.80;99.90
4697;DHT22;2362;50.780;0.292;2023-10-19T08:59:13;16.70;99.90
4697;DHT22;2362;50.780;0.292;2023-10-19T09:01:41;16.70;99.90
4697;DHT22;2362;50.780;0.292;2023-10-19T09:04:10;16.70;99.90
4697;DHT22;2362;50.780;0.292;2023-10-19T09:06:37;16.80;99.90
4697;DHT22;2362;50.780;0.292;2023-10-19T09:09:13;16.80;99.90
4697;DHT22;2362;50.780;0.292;2023-10-19T09:11:45;16.80;99.90
4697;DHT22;2362;50.780;0.292;2023-10-19T09:14:15;16.80;99.90
4697;DHT22;2362;50.780;0.292;2023-10-19T09:16:56;16.80;99.90
4697;DHT22;2362;50.780;0.292;2023-10-19T09:22:07;16.90;99.90
4697;DHT22;2362;50.780;0.292;2023-10-19T09:24:37;17.00;99.90
4697;DHT22;2362;50.780;0.292;2023-10-19T09:27:05;17.00;99.90
4697;DHT22;2362;50.780;0.292;2023-10-19T09:29:31;16.90;99.90
4697;DHT22;2362;50.780;0.292;2023-10-19T09:32:00;16.90;99.90
4697;DHT22;2362;50.780;0.292;2023-10-19T09:34:29;17.00;99.90
4697;DHT22;2362;50.780;0.292;2023-10-19T09:37:01;17.00;99.90
4697;DHT22;2362;50.780;0.292;2023-10-19T09:39:28;17.20;99.90
4697;DHT22;2362;50.780;0.292;2023-10-19T09:42:08;17.40;99.90
4697;DHT22;2362;50.780;0.292;2023-10-19T09:44:55;17.40;99.90
4697;DHT22;2362;50.780;0.292;2023-10-19T09:47:35;17.30;99.90
4697;DHT22;2362;50.780;0.292;2023-10-19T09:50:04;17.30;99.90
4697;DHT22;2362;50.780;0.292;2023-10-19T09:52:33;17.30;99.90
4697;DHT22;2362;50.780;0.292;2023-10-19T09:55:34;17.30;99.90
4697;DHT22;2362;50.780;0.292;2023-10-19T09:58:06;17.40;99.90
4697;DHT22;2362;50.780;0.292;2023-10-19T10:00:35;17.50;99.90
4697;DHT22;2362;50.780;0.292;2023-10-19T10:03:00;17.60;99.90
4697;DHT22;2362;50.780;0.292;2023-10-19T10:10:47;17.40;99.90
4697;DHT22;2362;50.780;0.292;2023-10-19T10:15:55;17.20;99.90
4697;DHT22;2362;50.780;0.292;2023-10-19T10:18:24;17.10;99.90
4697;DHT22;2362;50.780;0.292;2023-10-19T10:21:06;17.10;99.90
4697;DHT22;2362;50.780;0.292;2023-10-19T10:23:40;17.00;99.90
4697;DHT22;2362;50.780;0.292;2023-10-19T10:26:06;17.00;99.90
4697;DHT22;2362;50.780;0.292;2023-10-19T10:28:34;17.10;99.90
4697;DHT22;2362;50.780;0.292;2023-10-19T10:31:19;17.20;99.90
4697;DHT22;2362;50.780;0.292;2023-10-19T10:33:53;17.40;99.90
4697;DHT22;2362;50.780;0.292;2023-10-19T10:36:22;17.70;99.90
4697;DHT22;2362;50.780;0.292;2023-10-19T10:38:50;18.10;99.90
4697;DHT22;2362;50.780;0.292;2023-10-19T10:41:25;18.30;99.90
4697;DHT22;2362;50.780;0.292;2023-10-19T10:43:55;18.50;99.90
4697;DHT22;2362;50.780;0.292;2023-10-19T10:46:26;18.60;99.90
4697;DHT22;2362;50.780;0.292;2023-10-19T10:48:53;18.70;99.90
4697;DHT22;2362;50.780;0.292;2023-10-19T10:51:26;18.60;99.90
4697;DHT22;2362;50.780;0.292;2023-10-19T10:53:57;18.30;99.90
4697;DHT22;2362;50.780;0.292;2023-10-19T10:56:24;18.10;99.90
4697;DHT22;2362;50.780;0.292;2023-10-19T10:58:49;17.90;99.90
4697;DHT22;2362;50.780;0.292;2023-10-19T11:01:28;17.70;99.90
4697;DHT22;2362;50.780;0.292;2023-10-19T11:04:06;17.70;99.90
4697;DHT22;2362;50.780;0.292;2023-10-19T11:06:32;17.80;99.90
4697;DHT22;2362;50.780;0.292;2023-10-19T11:08:58;17.80;99.90
4697;DHT22;2362;50.780;0.292;2023-10-19T11:11:23;17.90;99.90
4697;DHT22;2362;50.780;0.292;2023-10-19T11:13:49;17.90;99.90
4697;DHT22;2362;50.780;0.292;2023-10-19T11:16:22;17.90;99.90
4697;DHT22;2362;50.780;0.292;2023-10-19T11:18:49;17.90;99.90
4697;DHT22;2362;50.780;0.292;2023-10-19T11:21:15;17.90;99.90
4697;DHT22;2362;50.780;0.292;2023-10-19T11:26:27;17.90;99.90
4697;DHT22;2362;50.780;0.292;2023-10-19T11:29:00;18.00;99.90
4697;DHT22;2362;50.780;0.292;2023-10-19T11:31:26;18.20;99.90
4697;DHT22;2362;50.780;0.292;2023-10-19T11:33:54;18.30;99.90
4697;DHT22;2362;50.780;0.292;2023-10-19T11:36:24;18.10;99.90
4697;DHT22;2362;50.780;0.292;2023-10-19T11:38:52;18.00;99.90
4697;DHT22;2362;50.780;0.292;2023-10-19T11:41:17;17.90;99.90
4697;DHT22;2362;50.780;0.292;2023-10-19T11:43:47;17.90;99.90
4697;DHT22;2362;50.780;0.292;2023-10-19T11:46:14;17.80;99.90
4697;DHT22;2362;50.780;0.292;2023-10-19T11:48:57;17.80;99.90
4697;DHT22;2362;50.780;0.292;2023-10-19T11:51:23;17.80;99.90
4697;DHT22;2362;50.780;0.292;2023-10-19T11:53:49;17.80;99.90
4697;DHT22;2362;50.780;0.292;2023-10-19T11:56:14;17.70;99.90
4697;DHT22;2362;50.780;0.292;2023-10-19T11:58:42;17.70;99.90
4697;DHT22;2362;50.780;0.292;2023-10-19T12:01:09;17.80;99.90
4697;DHT22;2362;50.780;0.292;2023-10-19T12:03:40;17.80;99.90
4697;DHT22;2362;50.780;0.292;2023-10-19T12:06:07;17.80;99.90
4697;DHT22;2362;50.780;0.292;2023-10-19T12:08:34;17.90;99.90
4697;DHT22;2362;50.780;0.292;2023-10-19T12:11:00;17.90;99.90
4697;DHT22;2362;50.780;0.292;2023-10-19T12:13:45;18.10;99.90
4697;DHT22;2362;50.780;0.292;2023-10-19T12:16:14;18.00;99.90
4697;DHT22;2362;50.780;0.292;2023-10-19T12:18:43;18.10;99.90
4697;DHT22;2362;50.780;0.292;2023-10-19T12:21:09;18.20;99.90
4697;DHT22;2362;50.780;0.292;2023-10-19T12:23:42;18.30;99.90
4697;DHT22;2362;50.780;0.292;2023-10-19T12:26:09;18.20;99.90
4697;DHT22;2362;50.780;0.292;2023-10-19T12:28:38;18.30;99.90
4697;DHT22;2362;50.780;0.292;2023-10-19T12:31:04;18.20;99.90
4697;DHT22;2362;50.780;0.292;2023-10-19T12:33:39;18.10;99.90
4697;DHT22;2362;50.780;0.292;2023-10-19T12:36:07;18.10;99.90
4697;DHT22;2362;50.780;0.292;2023-10-19T12:38:52;18.10;99.90
4697;DHT22;2362;50.780;0.292;2023-10-19T12:41:20;18.10;99.90
4697;DHT22;2362;50.780;0.292;2023-10-19T12:43:47;18.10;99.90
4697;DHT22;2362;50.780;0.292;2023-10-19T12:46:13;18.10;99.90
4697;DHT22;2362;50.780;0.292;2023-10-19T12:48:43;18.00;99.90
4697;DHT22;2362;50.780;0.292;2023-10-19T12:51:08;18.10;99.90
4697;DHT22;2362;50.780;0.292;2023-10-19T12:53:37;18.10;99.90
4697;DHT22;2362;50.780;0.292;2023-10-19T12:56:05;18.10;99.90
4697;DHT22;2362;50.780;0.292;2023-10-19T12:58:31;18.10;99.90
4697;DHT22;2362;50.780;0.292;2023-10-19T13:00:57;18.00;99.90
4697;DHT22;2362;50.780;0.292;2023-10-19T13:03:24;18.00;99.90
4697;DHT22;2362;50.780;0.292;2023-10-19T13:05:53;18.00;99.90
4697;DHT22;2362;50.780;0.292;2023-10-19T13:08:19;18.10;99.90
4697;DHT22;2362;50.780;0.292;2023-10-19T13:10:47;18.10;99.90
4697;DHT22;2362;50.780;0.292;2023-10-19T13:13:14;18.10;99.90
4697;DHT22;2362;50.780;0.292;2023-10-19T13:15:42;18.10;99.90
4697;DHT22;2362;50.780;0.292;2023-10-19T13:18:10;18.10;99.90
4697;DHT22;2362;50.780;0.292;2023-10-19T13:20:37;18.10;99.90
4697;DHT22;2362;50.780;0.292;2023-10-19T13:23:04;18.10;99.90
4697;DHT22;2362;50.780;0.292;2023-10-19T13:25:31;18.00;99.90
4697;DHT22;2362;50.780;0.292;2023-10-19T13:28:08;17.90;99.90
4697;DHT22;2362;50.780;0.292;2023-10-19T13:30:42;17.90;99.90
4697;DHT22;2362;50.780;0.292;2023-10-19T13:33:10;17.90;99.90
4697;DHT22;2362;50.780;0.292;2023-10-19T13:35:41;17.90;99.90
4697;DHT22;2362;50.780;0.292;2023-10-19T13:38:09;17.80;99.90
4697;DHT22;2362;50.780;0.292;2023-10-19T13:40:38;17.80;99.90
4697;DHT22;2362;50.780;0.292;2023-10-19T13:43:05;17.90;99.90
4697;DHT22;2362;50.780;0.292;2023-10-19T13:45:35;17.90;99.90
4697;DHT22;2362;50.780;0.292;2023-10-19T13:48:04;17.90;99.90
4697;DHT22;2362;50.780;0.292;2023-10-19T13:50:31;17.90;99.90
4697;DHT22;2362;50.780;0.292;2023-10-19T13:52:58;17.90;99.90
4697;DHT22;2362;50.780;0.292;2023-10-19T13:55:29;17.80;99.90
4697;DHT22;2362;50.780;0.292;2023-10-19T13:57:55;17.80;99.90
4697;DHT22;2362;50.780;0.292;2023-10-19T14:00:24;17.80;99.90
4697;DHT22;2362;50.780;0.292;2023-10-19T14:02:51;17.90;99.90
4697;DHT22;2362;50.780;0.292;2023-10-19T14:05:18;17.90;99.90
4697;DHT22;2362;50.780;0.292;2023-10-19T14:07:45;17.80;99.90
4697;DHT22;2362;50.780;0.292;2023-10-19T14:10:12;17.80;99.90
4697;DHT22;2362;50.780;0.292;2023-10-19T14:12:39;17.80;99.90
4697;DHT22;2362;50.780;0.292;2023-10-19T14:15:12;17.70;99.90
4697;DHT22;2362;50.780;0.292;2023-10-19T14:17:39;17.80;99.90
4697;DHT22;2362;50.780;0.292;2023-10-19T14:20:05;17.70;99.90
4697;DHT22;2362;50.780;0.292;2023-10-19T14:22:31;17.70;99.90
4697;DHT22;2362;50.780;0.292;2023-10-19T14:25:00;17.70;99.90
4697;DHT22;2362;50.780;0.292;2023-10-19T14:27:26;17.60;99.90
4697;DHT22;2362;50.780;0.292;2023-10-19T14:29:52;17.60;99.90
4697;DHT22;2362;50.780;0.292;2023-10-19T14:32:17;17.60;99.90
4697;DHT22;2362;50.780;0.292;2023-10-19T14:34:45;17.50;99.90
4697;DHT22;2362;50.780;0.292;2023-10-19T14:37:10;17.40;99.90
4697;DHT22;2362;50.780;0.292;2023-10-19T14:39:36;17.50;99.90
4697;DHT22;2362;50.780;0.292;2023-10-19T14:42:02;17.40;99.90
4697;DHT22;2362;50.780;0.292;2023-10-19T14:44:27;17.40;99.90
4697;DHT22;2362;50.780;0.292;2023-10-19T14:46:53;17.40;99.90
4697;DHT22;2362;50.780;0.292;2023-10-19T14:49:19;17.40;99.90
4697;DHT22;2362;50.780;0.292;2023-10-19T14:51:44;17.40;99.90
4697;DHT22;2362;50.780;0.292;2023-10-19T14:54:10;17.40;99.90
4697;DHT22;2362;50.780;0.292;2023-10-19T14:56:37;17.40;99.90
4697;DHT22;2362;50.780;0.292;2023-10-19T14:59:02;17.40;99.90
4697;DHT22;2362;50.780;0.292;2023-10-19T15:01:31;17.40;99.90
4697;DHT22;2362;50.780;0.292;2023-10-19T15:03:56;17.40;99.90
4697;DHT22;2362;50.780;0.292;2023-10-19T15:06:22;17.40;99.90
4697;DHT22;2362;50.780;0.292;2023-10-19T15:08:47;17.40;99.90
4697;DHT22;2362;50.780;0.292;2023-10-19T15:11:17;17.40;99.90
4697;DHT22;2362;50.780;0.292;2023-10-19T15:13:43;17.40;99.90
4697;DHT22;2362;50.780;0.292;2023-10-19T15:16:09;17.40;99.90
4697;DHT22;2362;50.780;0.292;2023-10-19T15:18:35;17.40;99.90
4697;DHT22;2362;50.780;0.292;2023-10-19T15:21:09;17.40;99.90
4697;DHT22;2362;50.780;0.292;2023-10-19T15:23:35;17.40;99.90
4697;DHT22;2362;50.780;0.292;2023-10-19T15:26:01;17.40;99.90
4697;DHT22;2362;50.780;0.292;2023-10-19T15:28:27;17.40;99.90
4697;DHT22;2362;50.780;0.292;2023-10-19T15:30:58;17.50;99.90
4697;DHT22;2362;50.780;0.292;2023-10-19T15:33:26;17.50;99.90
4697;DHT22;2362;50.780;0.292;2023-10-19T15:35:57;17.50;99.90
4697;DHT22;2362;50.780;0.292;2023-10-19T15:38:23;17.40;99.90
4697;DHT22;2362;50.780;0.292;2023-10-19T15:40:49;17.40;99.90
4697;DHT22;2362;50.780;0.292;2023-10-19T15:43:15;17.40;99.90
4697;DHT22;2362;50.780;0.292;2023-10-19T15:45:42;17.50;99.90
4697;DHT22;2362;50.780;0.292;2023-10-19T15:48:11;17.50;99.90
4697;DHT22;2362;50.780;0.292;2023-10-19T15:50:39;17.50;99.90
4697;DHT22;2362;50.780;0.292;2023-10-19T15:53:06;17.40;99.90
4697;DHT22;2362;50.780;0.292;2023-10-19T15:55:32;17.40;99.90
4697;DHT22;2362;50.780;0.292;2023-10-19T15:57:58;17.40;99.90
4697;DHT22;2362;50.780;0.292;2023-10-19T16:00:24;17.40;99.90
4697;DHT22;2362;50.780;0.292;2023-10-19T16:02:50;17.50;99.90
4697;DHT22;2362;50.780;0.292;2023-10-19T16:05:16;17.50;99.90
4697;DHT22;2362;50.780;0.292;2023-10-19T16:07:42;17.50;99.90
4697;DHT22;2362;50.780;0.292;2023-10-19T16:10:09;17.50;99.90
4697;DHT22;2362;50.780;0.292;2023-10-19T16:12:38;17.50;99.90
4697;DHT22;2362;50.780;0.292;2023-10-19T16:15:04;17.50;99.90
4697;DHT22;2362;50.780;0.292;2023-10-19T16:17:32;17.50;99.90
4697;DHT22;2362;50.780;0.292;2023-10-19T16:19:58;17.50;99.90
4697;DHT22;2362;50.780;0.292;2023-10-19T16:22:24;17.50;99.90
4697;DHT22;2362;50.780;0.292;2023-10-19T16:24:49;17.50;99.90
4697;DHT22;2362;50.780;0.292;2023-10-19T16:27:15;17.50;99.90